sensor_id;sensor_type;location;lat;lon;timestamp;pressure;altitude;pressure_sealevel;temperature
82400;BMP280;72039;48.812;8.198;2023-11-21T00:00:04;99773.19;;;10.18
82400;BMP280;72039;48.812;8.198;2023-11-21T00:02:37;99769.69;;;10.17
82400;BMP280;72039;48.812;8.198;2023-11-21T00:05:07;99771.03;;;10.16
82400;BMP280;72039;48.812;8.198;2023-11-21T00:07:33;99775.22;;;10.17
82400;BMP280;72039;48.812;8.198;2023-11-21T00:09:58;99771.19;;;10.21
82400;BMP280;72039;48.812;8.198;2023-11-21T00:12:24;99776.94;;;10.25
82400;BMP280;72039;48.812;8.198;2023-11-21T00:14:52;99778.41;;;10.28
82400;BMP280;72039;48.812;8.198;2023-11-21T00:17:20;99782.59;;;10.29
82400;BMP280;72039;48.812;8.198;2023-11-21T00:19:45;99771.53;;;10.29
82400;BMP280;72039;48.812;8.198;2023-11-21T00:22:11;99773.59;;;10.28
82400;BMP280;72039;48.812;8.198;2023-11-21T00:24:38;99780.47;;;10.27
82400;BMP280;72039;48.812;8.198;2023-11-21T00:27:03;99777.63;;;10.25
82400;BMP280;72039;48.812;8.198;2023-11-21T00:29:29;99769.22;;;10.23
82400;BMP280;72039;48.812;8.198;2023-11-21T00:31:54;99778.16;;;10.22
82400;BMP280;72039;48.812;8.198;2023-11-21T00:34:19;99776.03;;;10.20
82400;BMP280;72039;48.812;8.198;2023-11-21T00:36:47;99775.28;;;10.20
82400;BMP280;72039;48.812;8.198;2023-11-21T00:39:15;99773.88;;;10.18
82400;BMP280;72039;48.812;8.198;2023-11-21T00:41:40;99771.75;;;10.17
82400;BMP280;72039;48.812;8.198;2023-11-21T00:44:09;99771.03;;;10.16
82400;BMP280;72039;48.812;8.198;2023-11-21T00:46:37;99764.13;;;10.17
82400;BMP280;72039;48.812;8.198;2023-11-21T00:49:05;99757.16;;;10.16
82400;BMP280;72039;48.812;8.198;2023-11-21T00:51:30;99758.53;;;10.15
82400;BMP280;72039;48.812;8.198;2023-11-21T00:54:03;99750.13;;;10.13
82400;BMP280;72039;48.812;8.198;2023-11-21T00:56:31;99757.69;;;10.13
82400;BMP280;72039;48.812;8.198;2023-11-21T00:58:59;99751.44;;;10.12
82400;BMP280;72039;48.812;8.198;2023-11-21T01:01:27;99753.50;;;10.12
82400;BMP280;72039;48.812;8.198;2023-11-21T01:03:57;99755.50;;;10.09
82400;BMP280;72039;48.812;8.198;2023-11-21T01:06:25;99762.44;;;10.10
82400;BMP280;72039;48.812;8.198;2023-11-21T01:08:53;99768.78;;;10.13
82400;BMP280;72039;48.812;8.198;2023-11-21T01:11:18;99760.47;;;10.13
82400;BMP280;72039;48.812;8.198;2023-11-21T01:13:43;99766.66;;;10.11
82400;BMP280;72039;48.812;8.198;2023-11-21T01:16:12;99774.97;;;10.11
82400;BMP280;72039;48.812;8.198;2023-11-21T01:18:37;99771.47;;;10.11
82400;BMP280;72039;48.812;8.198;2023-11-21T01:21:03;99777.75;;;10.11
82400;BMP280;72039;48.812;8.198;2023-11-21T01:23:31;99779.06;;;10.10
82400;BMP280;72039;48.812;8.198;2023-11-21T01:25:57;99763.16;;;10.11
82400;BMP280;72039;48.812;8.198;2023-11-21T01:28:24;99763.09;;;10.09
82400;BMP280;72039;48.812;8.198;2023-11-21T01:30:49;99767.19;;;10.08
82400;BMP280;72039;48.812;8.198;2023-11-21T01:33:15;99774.81;;;10.07
82400;BMP280;72039;48.812;8.198;2023-11-21T01:35:41;99778.94;;;10.06
82400;BMP280;72039;48.812;8.198;2023-11-21T01:38:12;99769.06;;;10.03
82400;BMP280;72039;48.812;8.198;2023-11-21T01:40:40;99776.69;;;10.03
82400;BMP280;72039;48.812;8.198;2023-11-21T01:43:05;99773.81;;;10.01
82400;BMP280;72039;48.812;8.198;2023-11-21T01:45:30;99773.81;;;10.01
82400;BMP280;72039;48.812;8.198;2023-11-21T01:48:04;99768.97;;;10.01
82400;BMP280;72039;48.812;8.198;2023-11-21T01:50:32;99766.19;;;10.01
82400;BMP280;72039;48.812;8.198;2023-11-21T01:53:01;99756.41;;;9.98
82400;BMP280;72039;48.812;8.198;2023-11-21T01:55:29;99762.47;;;9.94
82400;BMP280;72039;48.812;8.198;2023-11-21T01:57:57;99772.84;;;9.94
82400;BMP280;72039;48.812;8.198;2023-11-21T02:00:23;99770.78;;;9.94
82400;BMP280;72039;48.812;8.198;2023-11-21T02:02:51;99778.38;;;9.94
82400;BMP280;72039;48.812;8.198;2023-11-21T02:05:19;99779.72;;;9.93
82400;BMP280;72039;48.812;8.198;2023-11-21T02:07:53;99788.03;;;9.93
82400;BMP280;72039;48.812;8.198;2023-11-21T02:10:21;99786.00;;;9.93
82400;BMP280;72039;48.812;8.198;2023-11-21T02:12:51;99795.00;;;9.94
82400;BMP280;72039;48.812;8.198;2023-11-21T02:15:19;99787.41;;;9.94
82400;BMP280;72039;48.812;8.198;2023-11-21T02:17:49;99788.94;;;9.98
82400;BMP280;72039;48.812;8.198;2023-11-21T02:20:19;99782.75;;;9.99
82400;BMP280;72039;48.812;8.198;2023-11-21T02:22:55;99791.81;;;10.00
82400;BMP280;72039;48.812;8.198;2023-11-21T02:25:29;99792.44;;;9.98
82400;BMP280;72039;48.812;8.198;2023-11-21T02:27:56;99786.78;;;9.96
82400;BMP280;72039;48.812;8.198;2023-11-21T02:30:22;99778.47;;;9.96
82400;BMP280;72039;48.812;8.198;2023-11-21T02:32:48;99784.03;;;9.96
82400;BMP280;72039;48.812;8.198;2023-11-21T02:35:18;99788.75;;;9.93
82400;BMP280;72039;48.812;8.198;2023-11-21T02:37:45;99785.91;;;9.91
82400;BMP280;72039;48.812;8.198;2023-11-21T02:40:11;99780.38;;;9.91
82400;BMP280;72039;48.812;8.198;2023-11-21T02:42:43;99787.88;;;9.89
82400;BMP280;72039;48.812;8.198;2023-11-21T02:45:09;99782.84;;;9.85
82400;BMP280;72039;48.812;8.198;2023-11-21T02:47:37;99789.13;;;9.86
82400;BMP280;72039;48.812;8.198;2023-11-21T02:50:06;99787.69;;;9.85
82400;BMP280;72039;48.812;8.198;2023-11-21T02:52:34;99780.03;;;9.83
82400;BMP280;72039;48.812;8.198;2023-11-21T02:55:03;99783.41;;;9.82
82400;BMP280;72039;48.812;8.198;2023-11-21T02:57:29;99782.16;;;9.85
82400;BMP280;72039;48.812;8.198;2023-11-21T02:59:54;99780.19;;;9.87
82400;BMP280;72039;48.812;8.198;2023-11-21T03:02:20;99780.91;;;9.88
82400;BMP280;72039;48.812;8.198;2023-11-21T03:04:46;99780.09;;;9.85
82400;BMP280;72039;48.812;8.198;2023-11-21T03:07:13;99784.13;;;9.82
82400;BMP280;72039;48.812;8.198;2023-11-21T03:09:38;99777.16;;;9.81
82400;BMP280;72039;48.812;8.198;2023-11-21T03:12:06;99778.59;;;9.82
82400;BMP280;72039;48.812;8.198;2023-11-21T03:14:34;99766.09;;;9.81
82400;BMP280;72039;48.812;8.198;2023-11-21T03:17:02;99772.34;;;9.82
82400;BMP280;72039;48.812;8.198;2023-11-21T03:19:30;99772.34;;;9.82
82400;BMP280;72039;48.812;8.198;2023-11-21T03:22:00;99766.19;;;9.83
82400;BMP280;72039;48.812;8.198;2023-11-21T03:24:28;99762.75;;;9.85
82400;BMP280;72039;48.812;8.198;2023-11-21T03:26:56;99762.03;;;9.84
82400;BMP280;72039;48.812;8.198;2023-11-21T03:29:21;99758.56;;;9.84
82400;BMP280;72039;48.812;8.198;2023-11-21T03:31:49;99769.63;;;9.84
82400;BMP280;72039;48.812;8.198;2023-11-21T03:34:24;99765.34;;;9.81
82400;BMP280;72039;48.812;8.198;2023-11-21T03:36:53;99768.06;;;9.79
82400;BMP280;72039;48.812;8.198;2023-11-21T03:39:19;99770.63;;;9.75
82400;BMP280;72039;48.812;8.198;2023-11-21T03:41:47;99767.16;;;9.74
82400;BMP280;72039;48.812;8.198;2023-11-21T03:44:13;99769.19;;;9.74
82400;BMP280;72039;48.812;8.198;2023-11-21T03:46:43;99770.47;;;9.70
82400;BMP280;72039;48.812;8.198;2023-11-21T03:49:11;99767.69;;;9.70
82400;BMP280;72039;48.812;8.198;2023-11-21T03:51:38;99782.97;;;9.71
82400;BMP280;72039;48.812;8.198;2023-11-21T03:54:08;99776.00;;;9.70
82400;BMP280;72039;48.812;8.198;2023-11-21T03:56:36;99775.19;;;9.68
82400;BMP280;72039;48.812;8.198;2023-11-21T03:59:01;99780.03;;;9.67
82400;BMP280;72039;48.812;8.198;2023-11-21T04:01:26;99780.03;;;9.67
82400;BMP280;72039;48.812;8.198;2023-11-21T04:03:52;99785.56;;;9.67
82400;BMP280;72039;48.812;8.198;2023-11-21T04:06:17;99782.69;;;9.65
82400;BMP280;72039;48.812;8.198;2023-11-21T04:08:45;99782.63;;;9.63
82400;BMP280;72039;48.812;8.198;2023-11-21T04:11:11;99775.56;;;9.60
82400;BMP280;72039;48.812;8.198;2023-11-21T04:13:38;99783.13;;;9.60
82400;BMP280;72039;48.812;8.198;2023-11-21T04:16:04;99780.38;;;9.60
82400;BMP280;72039;48.812;8.198;2023-11-21T04:18:30;99790.03;;;9.59
82400;BMP280;72039;48.812;8.198;2023-11-21T04:20:55;99788.56;;;9.58
82400;BMP280;72039;48.812;8.198;2023-11-21T04:23:20;99791.34;;;9.58
82400;BMP280;72039;48.812;8.198;2023-11-21T04:25:46;99793.50;;;9.59
82400;BMP280;72039;48.812;8.198;2023-11-21T04:28:11;99793.41;;;9.57
82400;BMP280;72039;48.812;8.198;2023-11-21T04:30:37;99800.38;;;9.58
82400;BMP280;72039;48.812;8.198;2023-11-21T04:33:04;99800.22;;;9.54
82400;BMP280;72039;48.812;8.198;2023-11-21T04:35:34;99800.22;;;9.54
82400;BMP280;72039;48.812;8.198;2023-11-21T04:38:02;99810.59;;;9.54
82400;BMP280;72039;48.812;8.198;2023-11-21T04:40:30;99807.00;;;9.51
82400;BMP280;72039;48.812;8.198;2023-11-21T04:42:55;99811.91;;;9.53
82400;BMP280;72039;48.812;8.198;2023-11-21T04:45:22;99809.31;;;9.57
82400;BMP280;72039;48.812;8.198;2023-11-21T04:47:47;99810.69;;;9.56
82400;BMP280;72039;48.812;8.198;2023-11-21T04:50:15;99821.03;;;9.55
82400;BMP280;72039;48.812;8.198;2023-11-21T04:52:42;99810.03;;;9.57
82400;BMP280;72039;48.812;8.198;2023-11-21T04:55:08;99826.75;;;9.59
82400;BMP280;72039;48.812;8.198;2023-11-21T04:57:38;99818.53;;;9.61
82400;BMP280;72039;48.812;8.198;2023-11-21T05:00:04;99828.25;;;9.62
82400;BMP280;72039;48.812;8.198;2023-11-21T05:02:33;99820.78;;;9.65
82400;BMP280;72039;48.812;8.198;2023-11-21T05:05:03;99829.78;;;9.65
82400;BMP280;72039;48.812;8.198;2023-11-21T05:07:31;99829.09;;;9.65
82400;BMP280;72039;48.812;8.198;2023-11-21T05:09:59;99828.25;;;9.62
82400;BMP280;72039;48.812;8.198;2023-11-21T05:12:24;99828.09;;;9.58
82400;BMP280;72039;48.812;8.198;2023-11-21T05:14:51;99830.75;;;9.56
82400;BMP280;72039;48.812;8.198;2023-11-21T05:17:18;99826.47;;;9.53
82400;BMP280;72039;48.812;8.198;2023-11-21T05:19:43;99831.19;;;9.51
82400;BMP280;72039;48.812;8.198;2023-11-21T05:22:10;99833.25;;;9.50
82400;BMP280;72039;48.812;8.198;2023-11-21T05:24:37;99838.78;;;9.50
82400;BMP280;72039;48.812;8.198;2023-11-21T05:27:04;99848.44;;;9.49
82400;BMP280;72039;48.812;8.198;2023-11-21T05:29:32;99848.34;;;9.47
82400;BMP280;72039;48.812;8.198;2023-11-21T05:31:57;99847.66;;;9.46
82400;BMP280;72039;48.812;8.198;2023-11-21T05:34:25;99844.22;;;9.48
82400;BMP280;72039;48.812;8.198;2023-11-21T05:36:51;99852.53;;;9.48
82400;BMP280;72039;48.812;8.198;2023-11-21T05:42:50;99856.03;;;9.48
82400;BMP280;72039;48.812;8.198;2023-11-21T05:45:16;99865.78;;;9.50
82400;BMP280;72039;48.812;8.198;2023-11-21T05:48:04;99858.06;;;9.48
82400;BMP280;72039;48.812;8.198;2023-11-21T05:50:31;99864.31;;;9.48
82400;BMP280;72039;48.812;8.198;2023-11-21T05:52:57;99865.06;;;9.49
82400;BMP280;72039;48.812;8.198;2023-11-21T05:55:25;99868.44;;;9.47
82400;BMP280;72039;48.812;8.198;2023-11-21T05:57:51;99869.88;;;9.48
82400;BMP280;72039;48.812;8.198;2023-11-21T06:00:16;99860.84;;;9.48
82400;BMP280;72039;48.812;8.198;2023-11-21T06:02:51;99873.28;;;9.47
82400;BMP280;72039;48.812;8.198;2023-11-21T06:05:18;99867.56;;;9.43
82400;BMP280;72039;48.812;8.198;2023-11-21T06:07:44;99882.22;;;9.45
82400;BMP280;72039;48.812;8.198;2023-11-21T06:10:11;99876.69;;;9.45
82400;BMP280;72039;48.812;8.198;2023-11-21T06:12:39;99882.94;;;9.46
82400;BMP280;72039;48.812;8.198;2023-11-21T06:15:06;99880.06;;;9.44
82400;BMP280;72039;48.812;8.198;2023-11-21T06:17:36;99882.75;;;9.42
82400;BMP280;72039;48.812;8.198;2023-11-21T06:20:02;99878.53;;;9.41
82400;BMP280;72039;48.812;8.198;2023-11-21T06:22:44;99883.56;;;9.44
82400;BMP280;72039;48.812;8.198;2023-11-21T06:25:11;99880.06;;;9.44
82400;BMP280;72039;48.812;8.198;2023-11-21T06:27:39;99886.22;;;9.42
82400;BMP280;72039;48.812;8.198;2023-11-21T06:30:06;99888.28;;;9.42
82400;BMP280;72039;48.812;8.198;2023-11-21T06:32:32;99887.53;;;9.41
82400;BMP280;72039;48.812;8.198;2023-11-21T06:35:00;99893.72;;;9.40
82400;BMP280;72039;48.812;8.198;2023-11-21T06:37:26;99903.44;;;9.41
82400;BMP280;72039;48.812;8.198;2023-11-21T06:39:52;99897.19;;;9.40
82400;BMP280;72039;48.812;8.198;2023-11-21T06:42:18;99904.16;;;9.41
82400;BMP280;72039;48.812;8.198;2023-11-21T06:44:46;99899.97;;;9.40
82400;BMP280;72039;48.812;8.198;2023-11-21T06:47:12;99899.38;;;9.42
82400;BMP280;72039;48.812;8.198;2023-11-21T06:49:42;99903.66;;;9.45
82400;BMP280;72039;48.812;8.198;2023-11-21T06:52:12;99907.84;;;9.46
82400;BMP280;72039;48.812;8.198;2023-11-21T06:54:37;99900.28;;;9.46
82400;BMP280;72039;48.812;8.198;2023-11-21T06:57:05;99910.81;;;9.50
82400;BMP280;72039;48.812;8.198;2023-11-21T06:59:30;99905.97;;;9.51
82400;BMP280;72039;48.812;8.198;2023-11-21T07:01:55;99907.44;;;9.52
82400;BMP280;72039;48.812;8.198;2023-11-21T07:04:20;99916.56;;;9.54
82400;BMP280;72039;48.812;8.198;2023-11-21T07:06:48;99930.47;;;9.56
82400;BMP280;72039;48.812;8.198;2023-11-21T07:09:14;99927.06;;;9.58
82400;BMP280;72039;48.812;8.198;2023-11-21T07:11:43;99926.38;;;9.57
82400;BMP280;72039;48.812;8.198;2023-11-21T07:14:18;99934.59;;;9.55
82400;BMP280;72039;48.812;8.198;2023-11-21T07:16:46;99943.53;;;9.54
82400;BMP280;72039;48.812;8.198;2023-11-21T07:19:20;99946.22;;;9.52
82400;BMP280;72039;48.812;8.198;2023-11-21T07:21:46;99953.16;;;9.53
82400;BMP280;72039;48.812;8.198;2023-11-21T07:24:12;99941.38;;;9.52
82400;BMP280;72039;48.812;8.198;2023-11-21T07:26:40;99948.06;;;9.47
82400;BMP280;72039;48.812;8.198;2023-11-21T07:29:08;99955.56;;;9.44
82400;BMP280;72039;48.812;8.198;2023-11-21T07:31:36;99957.59;;;9.44
82400;BMP280;72039;48.812;8.198;2023-11-21T07:34:05;99961.72;;;9.43
82400;BMP280;72039;48.812;8.198;2023-11-21T07:36:33;99952.69;;;9.42
82400;BMP280;72039;48.812;8.198;2023-11-21T07:38:58;99961.72;;;9.43
82400;BMP280;72039;48.812;8.198;2023-11-21T07:41:25;99970.03;;;9.43
82400;BMP280;72039;48.812;8.198;2023-11-21T07:43:51;99970.13;;;9.45
82400;BMP280;72039;48.812;8.198;2023-11-21T07:46:16;99964.00;;;9.46
82400;BMP280;72039;48.812;8.198;2023-11-21T07:48:43;99960.66;;;9.50
82400;BMP280;72039;48.812;8.198;2023-11-21T07:51:09;99964.34;;;9.55
82400;BMP280;72039;48.812;8.198;2023-11-21T07:53:35;99964.44;;;9.57
82400;BMP280;72039;48.812;8.198;2023-11-21T07:56:05;99972.03;;;9.56
82400;BMP280;72039;48.812;8.198;2023-11-21T07:58:34;99973.19;;;9.51
82400;BMP280;72039;48.812;8.198;2023-11-21T08:01:00;99975.66;;;9.45
82400;BMP280;72039;48.812;8.198;2023-11-21T08:03:25;99980.50;;;9.44
82400;BMP280;72039;48.812;8.198;2023-11-21T08:05:59;99984.59;;;9.43
82400;BMP280;72039;48.812;8.198;2023-11-21T08:08:25;99989.41;;;9.43
82400;BMP280;72039;48.812;8.198;2023-11-21T08:10:50;99988.06;;;9.44
82400;BMP280;72039;48.812;8.198;2023-11-21T08:13:28;99993.00;;;9.45
82400;BMP280;72039;48.812;8.198;2023-11-21T08:15:57;99994.47;;;9.46
82400;BMP280;72039;48.812;8.198;2023-11-21T08:18:27;99997.22;;;9.46
82400;BMP280;72039;48.812;8.198;2023-11-21T08:20:52;99997.22;;;9.46
82400;BMP280;72039;48.812;8.198;2023-11-21T08:23:20;99998.53;;;9.45
82400;BMP280;72039;48.812;8.198;2023-11-21T08:25:45;100002.03;;;9.46
82400;BMP280;72039;48.812;8.198;2023-11-21T08:28:14;100002.09;;;9.48
82400;BMP280;72039;48.812;8.198;2023-11-21T08:30:42;100009.69;;;9.47
82400;BMP280;72039;48.812;8.198;2023-11-21T08:33:09;100006.22;;;9.47
82400;BMP280;72039;48.812;8.198;2023-11-21T08:35:38;100009.81;;;9.50
82400;BMP280;72039;48.812;8.198;2023-11-21T08:38:04;100013.09;;;9.46
82400;BMP280;72039;48.812;8.198;2023-11-21T08:40:29;100010.84;;;9.42
82400;BMP280;72039;48.812;8.198;2023-11-21T08:42:55;100006.03;;;9.43
82400;BMP280;72039;48.812;8.198;2023-11-21T08:45:24;100019.97;;;9.45
82400;BMP280;72039;48.812;8.198;2023-11-21T08:47:51;100015.06;;;9.43
82400;BMP280;72039;48.812;8.198;2023-11-21T08:50:16;100014.94;;;9.41
82400;BMP280;72039;48.812;8.198;2023-11-21T08:52:42;100022.53;;;9.41
82400;BMP280;72039;48.812;8.198;2023-11-21T08:55:10;100027.97;;;9.39
82400;BMP280;72039;48.812;8.198;2023-11-21T08:57:38;100027.47;;;9.42
82400;BMP280;72039;48.812;8.198;2023-11-21T09:00:04;100027.59;;;9.44
82400;BMP280;72039;48.812;8.198;2023-11-21T09:02:33;100032.50;;;9.46
82400;BMP280;72039;48.812;8.198;2023-11-21T09:05:01;100029.19;;;9.50
82400;BMP280;72039;48.812;8.198;2023-11-21T09:07:28;100035.56;;;9.52
82400;BMP280;72039;48.812;8.198;2023-11-21T09:09:56;100033.41;;;9.51
82400;BMP280;72039;48.812;8.198;2023-11-21T09:12:24;100039.03;;;9.53
82400;BMP280;72039;48.812;8.198;2023-11-21T09:14:55;100036.47;;;9.57
82400;BMP280;72039;48.812;8.198;2023-11-21T09:17:26;100039.34;;;9.59
82400;BMP280;72039;48.812;8.198;2023-11-21T09:19:51;100048.38;;;9.59
82400;BMP280;72039;48.812;8.198;2023-11-21T09:22:18;100049.19;;;9.62
82400;BMP280;72039;48.812;8.198;2023-11-21T09:24:47;100052.78;;;9.64
82400;BMP280;72039;48.812;8.198;2023-11-21T09:27:13;100050.00;;;9.64
82400;BMP280;72039;48.812;8.198;2023-11-21T09:29:40;100045.88;;;9.65
82400;BMP280;72039;48.812;8.198;2023-11-21T09:32:06;100064.88;;;9.71
82400;BMP280;72039;48.812;8.198;2023-11-21T09:34:38;100067.13;;;9.75
82400;BMP280;72039;48.812;8.198;2023-11-21T09:37:09;100063.22;;;9.80
82400;BMP280;72039;48.812;8.198;2023-11-21T09:39:35;100068.16;;;9.81
82400;BMP280;72039;48.812;8.198;2023-11-21T09:42:12;100071.06;;;9.85
82400;BMP280;72039;48.812;8.198;2023-11-21T09:44:46;100070.56;;;9.89
82400;BMP280;72039;48.812;8.198;2023-11-21T09:47:15;100079.09;;;9.93
82400;BMP280;72039;48.812;8.198;2023-11-21T09:49:45;100070.88;;;9.95
82400;BMP280;72039;48.812;8.198;2023-11-21T09:52:20;100091.91;;;10.00
82400;BMP280;72039;48.812;8.198;2023-11-21T09:54:53;100087.06;;;10.01
82400;BMP280;72039;48.812;8.198;2023-11-21T09:57:23;100091.19;;;10.00
82400;BMP280;72039;48.812;8.198;2023-11-21T09:59:53;100090.47;;;9.99
82400;BMP280;72039;48.812;8.198;2023-11-21T10:02:28;100093.31;;;10.01
82400;BMP280;72039;48.812;8.198;2023-11-21T10:04:59;100100.31;;;10.02
82400;BMP280;72039;48.812;8.198;2023-11-21T10:07:28;100090.03;;;10.05
82400;BMP280;72039;48.812;8.198;2023-11-21T10:09:59;100092.81;;;10.05
82400;BMP280;72039;48.812;8.198;2023-11-21T10:12:26;100087.25;;;10.05
82400;BMP280;72039;48.812;8.198;2023-11-21T10:14:54;100082.44;;;10.05
82400;BMP280;72039;48.812;8.198;2023-11-21T10:17:23;100095.69;;;10.07
82400;BMP280;72039;48.812;8.198;2023-11-21T10:19:52;100093.72;;;10.09
82400;BMP280;72039;48.812;8.198;2023-11-21T10:22:21;100088.88;;;10.10
82400;BMP280;72039;48.812;8.198;2023-11-21T10:24:49;100099.47;;;10.13
82400;BMP280;72039;48.812;8.198;2023-11-21T10:30:37;100092.69;;;10.16
82400;BMP280;72039;48.812;8.198;2023-11-21T10:33:04;100092.06;;;10.18
82400;BMP280;72039;48.812;8.198;2023-11-21T10:38:08;100097.78;;;10.22
82400;BMP280;72039;48.812;8.198;2023-11-21T10:40:40;100102.50;;;10.20
82400;BMP280;72039;48.812;8.198;2023-11-21T10:43:08;100098.13;;;10.14
82400;BMP280;72039;48.812;8.198;2023-11-21T10:45:47;100105.72;;;10.14
82400;BMP280;72039;48.812;8.198;2023-11-21T10:48:13;100101.50;;;10.13
82400;BMP280;72039;48.812;8.198;2023-11-21T10:50:46;100105.13;;;10.15
82400;BMP280;72039;48.812;8.198;2023-11-21T10:53:11;100102.50;;;10.20
82400;BMP280;72039;48.812;8.198;2023-11-21T10:55:38;100101.88;;;10.21
82400;BMP280;72039;48.812;8.198;2023-11-21T10:58:04;100111.84;;;10.26
82400;BMP280;72039;48.812;8.198;2023-11-21T11:00:32;100112.75;;;10.31
82400;BMP280;72039;48.812;8.198;2023-11-21T11:02:58;100115.72;;;10.35
82400;BMP280;72039;48.812;8.198;2023-11-21T11:05:27;100113.63;;;10.35
82400;BMP280;72039;48.812;8.198;2023-11-21T11:08:11;100113.75;;;10.37
82400;BMP280;72039;48.812;8.198;2023-11-21T11:10:39;100110.34;;;10.39
82400;BMP280;72039;48.812;8.198;2023-11-21T11:13:07;100120.91;;;10.43
82400;BMP280;72039;48.812;8.198;2023-11-21T11:15:32;100111.97;;;10.44
82400;BMP280;72039;48.812;8.198;2023-11-21T11:17:58;100112.78;;;10.47
82400;BMP280;72039;48.812;8.198;2023-11-21T11:20:31;100116.25;;;10.47
82400;BMP280;72039;48.812;8.198;2023-11-21T11:28:22;100130.78;;;10.46
82400;BMP280;72039;48.812;8.198;2023-11-21T11:31:08;100134.38;;;10.48
82400;BMP280;72039;48.812;8.198;2023-11-21T11:37:02;100123.16;;;10.46
82400;BMP280;72039;48.812;8.198;2023-11-21T11:39:38;100129.25;;;10.43
82400;BMP280;72039;48.812;8.198;2023-11-21T11:42:07;100118.88;;;10.43
82400;BMP280;72039;48.812;8.198;2023-11-21T11:47:26;100117.44;;;10.42
82400;BMP280;72039;48.812;8.198;2023-11-21T13:50:31;100188.44;;;10.33
82400;BMP280;72039;48.812;8.198;2023-11-21T13:53:02;100192.75;;;10.36
82400;BMP280;72039;48.812;8.198;2023-11-21T13:55:44;100196.34;;;10.39
82400;BMP280;72039;48.812;8.198;2023-11-21T13:58:13;100189.56;;;10.42
82400;BMP280;72039;48.812;8.198;2023-11-21T14:00:44;100197.88;;;10.42
82400;BMP280;72039;48.812;8.198;2023-11-21T14:03:24;100194.47;;;10.44
82400;BMP280;72039;48.812;8.198;2023-11-21T14:06:05;100197.97;;;10.44
82400;BMP280;72039;48.812;8.198;2023-11-21T14:08:39;100202.25;;;10.47
82400;BMP280;72039;48.812;8.198;2023-11-21T14:11:05;100200.31;;;10.50
82400;BMP280;72039;48.812;8.198;2023-11-21T14:13:32;100205.25;;;10.51
82400;BMP280;72039;48.812;8.198;2023-11-21T14:15:57;100215.72;;;10.53
82400;BMP280;72039;48.812;8.198;2023-11-21T14:18:24;100218.50;;;10.53
82400;BMP280;72039;48.812;8.198;2023-11-21T14:21:01;100226.75;;;10.51
82400;BMP280;72039;48.812;8.198;2023-11-21T14:23:26;100231.47;;;10.48
82400;BMP280;72039;48.812;8.198;2023-11-21T14:25:51;100238.97;;;10.46
82400;BMP280;72039;48.812;8.198;2023-11-21T14:28:17;100245.13;;;10.44
82400;BMP280;72039;48.812;8.198;2023-11-21T14:30:44;100242.97;;;10.43
82400;BMP280;72039;48.812;8.198;2023-11-21T14:33:09;100254.72;;;10.41
82400;BMP280;72039;48.812;8.198;2023-11-21T14:35:38;100250.38;;;10.38
82400;BMP280;72039;48.812;8.198;2023-11-21T14:38:04;100251.00;;;10.36
82400;BMP280;72039;48.812;8.198;2023-11-21T14:40:33;100253.03;;;10.36
82400;BMP280;72039;48.812;8.198;2023-11-21T14:43:03;100262.09;;;10.36
82400;BMP280;72039;48.812;8.198;2023-11-21T14:45:34;100263.41;;;10.35
82400;BMP280;72039;48.812;8.198;2023-11-21T14:48:02;100267.56;;;10.34
82400;BMP280;72039;48.812;8.198;2023-11-21T14:50:30;100271.66;;;10.33
82400;BMP280;72039;48.812;8.198;2023-11-21T14:53:12;100267.47;;;10.32
82400;BMP280;72039;48.812;8.198;2023-11-21T14:55:41;100261.19;;;10.32
82400;BMP280;72039;48.812;8.198;2023-11-21T14:58:06;100261.19;;;10.32
82400;BMP280;72039;48.812;8.198;2023-11-21T15:00:40;100267.47;;;10.32
82400;BMP280;72039;48.812;8.198;2023-11-21T15:03:12;100275.78;;;10.32
82400;BMP280;72039;48.812;8.198;2023-11-21T15:05:56;100277.94;;;10.34
82400;BMP280;72039;48.812;8.198;2023-11-21T15:08:22;100280.72;;;10.34
82400;BMP280;72039;48.812;8.198;2023-11-21T15:10:52;100285.41;;;10.31
82400;BMP280;72039;48.812;8.198;2023-11-21T15:13:26;100290.97;;;10.31
82400;BMP280;72039;48.812;8.198;2023-11-21T15:19:17;100295.31;;;10.34
82400;BMP280;72039;48.812;8.198;2023-11-21T15:21:43;100290.38;;;10.33
82400;BMP280;72039;48.812;8.198;2023-11-21T15:24:10;100300.03;;;10.32
82400;BMP280;72039;48.812;8.198;2023-11-21T15:26:38;100295.19;;;10.32
82400;BMP280;72039;48.812;8.198;2023-11-21T15:29:04;100295.81;;;10.31
82400;BMP280;72039;48.812;8.198;2023-11-21T15:31:29;100304.75;;;10.29
82400;BMP280;72039;48.812;8.198;2023-11-21T15:33:57;100301.88;;;10.27
82400;BMP280;72039;48.812;8.198;2023-11-21T15:36:28;100307.34;;;10.25
82400;BMP280;72039;48.812;8.198;2023-11-21T15:38:54;100309.28;;;10.23
82400;BMP280;72039;48.812;8.198;2023-11-21T15:41:21;100313.81;;;10.16
82400;BMP280;72039;48.812;8.198;2023-11-21T15:43:47;100308.63;;;10.10
82400;BMP280;72039;48.812;8.198;2023-11-21T15:46:16;100319.66;;;10.08
82400;BMP280;72039;48.812;8.198;2023-11-21T15:48:41;100317.50;;;10.07
82400;BMP280;72039;48.812;8.198;2023-11-21T15:51:18;100319.56;;;10.06
82400;BMP280;72039;48.812;8.198;2023-11-21T15:53:45;100318.22;;;10.07
82400;BMP280;72039;48.812;8.198;2023-11-21T15:56:11;100318.69;;;10.04
82400;BMP280;72039;48.812;8.198;2023-11-21T15:58:41;100326.19;;;10.01
82400;BMP280;72039;48.812;8.198;2023-11-21T16:01:08;100329.50;;;9.98
82400;BMP280;72039;48.812;8.198;2023-11-21T16:03:35;100328.66;;;9.95
82400;BMP280;72039;48.812;8.198;2023-11-21T16:06:03;100323.72;;;9.93
82400;BMP280;72039;48.812;8.198;2023-11-21T16:08:29;100341.72;;;9.92
82400;BMP280;72039;48.812;8.198;2023-11-21T16:10:55;100338.84;;;9.90
82400;BMP280;72039;48.812;8.198;2023-11-21T16:13:23;100344.88;;;9.87
82400;BMP280;72039;48.812;8.198;2023-11-21T16:15:50;100342.69;;;9.85
82400;BMP280;72039;48.812;8.198;2023-11-21T16:18:19;100350.31;;;9.85
82400;BMP280;72039;48.812;8.198;2023-11-21T16:20:46;100346.81;;;9.84
82400;BMP280;72039;48.812;8.198;2023-11-21T16:23:12;71242.34;;;9.84
82400;BMP280;72039;48.812;8.198;2023-11-21T16:25:41;100359.16;;;9.81
82400;BMP280;72039;48.812;8.198;2023-11-21T16:28:06;100373.59;;;9.80
82400;BMP280;72039;48.812;8.198;2023-11-21T16:30:34;100376.97;;;9.78
82400;BMP280;72039;48.812;8.198;2023-11-21T16:33:03;100385.28;;;9.78
82400;BMP280;72039;48.812;8.198;2023-11-21T16:35:29;100376.97;;;9.78
82400;BMP280;72039;48.812;8.198;2023-11-21T16:37:57;100386.63;;;9.77
82400;BMP280;72039;48.812;8.198;2023-11-21T16:40:22;100391.47;;;9.77